Cambridge Bay Airport
CYCB : now visible

Airfield :











YOU CAN JOIN US ON...

 
LOGIN :

Register | Disclaimer

   EN    FR    IT 

 









Legend :    VFR   Marginal VFR   IFR   Intensive IFR   Very Intensive IFR
Visi :
Ceiling :
>= 8 km
>= 3000ft
5 to 8 km
1000 to 3000 ft
1500m to 5 km
500 to 1000 ft
800 to 1500m
200 to 500 ft
< 800m
< 200 ft
Symbols :   Thunderstorms  Fog  Heavy snow  Heavy precipitations  Wind > 20 kt






- Airport Elevation : 90 ft
- IATA code : YCB


CYCB - Cambridge Bay

CURRENT METAR :
  • 162000Z 33017G25KT 1/8SM -SN BLSN VV006 M23/M27 A2963 RMK SN8 SLP040

EXPIRED METARs :
  • 161900Z 31024G30KT 1/8SM -SN BLSN VV006 M24/M28 A2961 RMK SN8 VIS VRB 1/16 - 1/8 SLP035
  • 161855Z 31026KT 1/8SM -SN BLSN VV006 M24/M28 A2961 RMK SN8 VIS VRB 1/16 - 1/8 SLP035
  • 161800Z CCA 32022G28KT 1/8SM -SN BLSN FEW020 VV030 M24/M28 A2961 RMK SC2SN6 VIS VRB 1/16 - 1/8 SLP034
  • 161749Z 32021G27KT 1/8SM -SN BLSN VV010 M24/M27 A2961 RMK SN8 SLP034
  • 161721Z 31024KT 1/8SM IC -SN BLSN VV010 M24/M27 A2960 RMK BLSN8 SLP031

TAF TAF CYCB
Valid from the 16 at 19:00 until the 17 at 07:00 UTC


161838Z 1619/1707 32022G32KT 1/8SM IC +BLSN VV010
TEMPO 1619/1623 3SM BLSN BKN120
FM162300 32020G30KT 5SM IC BLSN SCT120
TEMPO 1623/1705 1SM -SN BLSN
FM170500 32018G28KT 1SM -SN BLSN OVC040
TEMPO 1705/1707 3SM BLSN SCT040 BKN100 RMK NXT FCST BY 170100Z



MET'MAP, your aeronautical weather chart ! - Copyright ORBIFLY December 2007 - Disclaimer

ORBIFLY MET'MAP TEAM :

Programming & Development : Alexandra Zaïnal
Concept & original design : Baudouin d'Aumeries
Assistance for programming : Marc-Olivier Méhu
Technical & hardware support : Manuel Goepfert

Contact : metmap@orbifly.com




SOURCES & CREDITS :

   NOAA       Earth
Advisory